sensor_id;sensor_type;location;lat;lon;timestamp;P1;durP1;ratioP1;P2;durP2;ratioP2
65651;SDS011;52350;51.546;7.002;2022-11-11T00:02:36;14.55;;;4.85;;
65651;SDS011;52350;51.546;7.002;2022-11-11T00:06:12;15.38;;;4.40;;
65651;SDS011;52350;51.546;7.002;2022-11-11T00:09:47;11.48;;;4.10;;
65651;SDS011;52350;51.546;7.002;2022-11-11T00:13:21;14.60;;;4.68;;
65651;SDS011;52350;51.546;7.002;2022-11-11T00:16:56;14.88;;;5.05;;
65651;SDS011;52350;51.546;7.002;2022-11-11T00:20:49;13.90;;;4.40;;
65651;SDS011;52350;51.546;7.002;2022-11-11T00:24:42;11.88;;;4.15;;
65651;SDS011;52350;51.546;7.002;2022-11-11T00:28:16;13.02;;;4.28;;
65651;SDS011;52350;51.546;7.002;2022-11-11T00:31:50;18.77;;;4.07;;
65651;SDS011;52350;51.546;7.002;2022-11-11T00:35:25;16.73;;;4.28;;
65651;SDS011;52350;51.546;7.002;2022-11-11T00:38:59;13.43;;;4.90;;
65651;SDS011;52350;51.546;7.002;2022-11-11T00:42:33;11.40;;;3.95;;
65651;SDS011;52350;51.546;7.002;2022-11-11T00:46:08;13.80;;;4.55;;
65651;SDS011;52350;51.546;7.002;2022-11-11T00:50:02;9.48;;;4.63;;
65651;SDS011;52350;51.546;7.002;2022-11-11T00:53:36;11.82;;;4.72;;
65651;SDS011;52350;51.546;7.002;2022-11-11T00:57:11;12.27;;;4.40;;
65651;SDS011;52350;51.546;7.002;2022-11-11T01:00:48;14.10;;;5.13;;
65651;SDS011;52350;51.546;7.002;2022-11-11T01:04:22;10.95;;;4.25;;
65651;SDS011;52350;51.546;7.002;2022-11-11T01:07:57;11.98;;;4.40;;
65651;SDS011;52350;51.546;7.002;2022-11-11T01:11:31;13.93;;;4.82;;
65651;SDS011;52350;51.546;7.002;2022-11-11T01:15:05;14.63;;;4.32;;
65651;SDS011;52350;51.546;7.002;2022-11-11T01:18:40;18.38;;;5.18;;
65651;SDS011;52350;51.546;7.002;2022-11-11T01:22:14;13.43;;;4.50;;
65651;SDS011;52350;51.546;7.002;2022-11-11T01:25:49;11.90;;;4.45;;
65651;SDS011;52350;51.546;7.002;2022-11-11T01:29:23;14.27;;;4.53;;
65651;SDS011;52350;51.546;7.002;2022-11-11T01:32:57;17.30;;;5.25;;
65651;SDS011;52350;51.546;7.002;2022-11-11T01:36:32;11.10;;;4.60;;
65651;SDS011;52350;51.546;7.002;2022-11-11T01:40:06;12.70;;;5.03;;
65651;SDS011;52350;51.546;7.002;2022-11-11T01:43:56;13.38;;;4.40;;
65651;SDS011;52350;51.546;7.002;2022-11-11T01:47:31;12.15;;;5.15;;
65651;SDS011;52350;51.546;7.002;2022-11-11T01:55:00;16.70;;;5.13;;
65651;SDS011;52350;51.546;7.002;2022-11-11T01:58:35;15.90;;;5.20;;
65651;SDS011;52350;51.546;7.002;2022-11-11T02:02:18;15.52;;;4.32;;
65651;SDS011;52350;51.546;7.002;2022-11-11T02:05:53;12.20;;;4.50;;
65651;SDS011;52350;51.546;7.002;2022-11-11T02:09:28;13.70;;;4.72;;
65651;SDS011;52350;51.546;7.002;2022-11-11T02:13:02;16.63;;;4.45;;
65651;SDS011;52350;51.546;7.002;2022-11-11T02:16:55;21.20;;;5.05;;
65651;SDS011;52350;51.546;7.002;2022-11-11T02:20:31;14.77;;;4.32;;
65651;SDS011;52350;51.546;7.002;2022-11-11T02:24:08;13.93;;;4.57;;
65651;SDS011;52350;51.546;7.002;2022-11-11T02:27:45;20.58;;;4.28;;
65651;SDS011;52350;51.546;7.002;2022-11-11T02:31:24;10.38;;;4.28;;
65651;SDS011;52350;51.546;7.002;2022-11-11T02:34:59;15.77;;;3.92;;
65651;SDS011;52350;51.546;7.002;2022-11-11T02:38:34;13.30;;;3.83;;
65651;SDS011;52350;51.546;7.002;2022-11-11T02:42:09;13.18;;;4.32;;
65651;SDS011;52350;51.546;7.002;2022-11-11T02:45:43;16.23;;;4.82;;
65651;SDS011;52350;51.546;7.002;2022-11-11T02:49:18;15.77;;;5.22;;
65651;SDS011;52350;51.546;7.002;2022-11-11T02:52:52;12.50;;;4.05;;
65651;SDS011;52350;51.546;7.002;2022-11-11T02:56:27;17.20;;;5.88;;
65651;SDS011;52350;51.546;7.002;2022-11-11T03:00:02;20.20;;;5.82;;
65651;SDS011;52350;51.546;7.002;2022-11-11T03:03:36;19.30;;;5.10;;
65651;SDS011;52350;51.546;7.002;2022-11-11T03:07:11;15.00;;;4.82;;
65651;SDS011;52350;51.546;7.002;2022-11-11T03:10:45;12.75;;;4.43;;
65651;SDS011;52350;51.546;7.002;2022-11-11T03:14:19;12.57;;;4.45;;
65651;SDS011;52350;51.546;7.002;2022-11-11T03:17:54;15.75;;;5.20;;
65651;SDS011;52350;51.546;7.002;2022-11-11T03:21:28;15.63;;;4.90;;
65651;SDS011;52350;51.546;7.002;2022-11-11T03:25:03;13.80;;;4.95;;
65651;SDS011;52350;51.546;7.002;2022-11-11T03:28:37;12.63;;;4.75;;
65651;SDS011;52350;51.546;7.002;2022-11-11T03:32:12;13.23;;;4.93;;
65651;SDS011;52350;51.546;7.002;2022-11-11T03:35:46;12.73;;;4.45;;
65651;SDS011;52350;51.546;7.002;2022-11-11T03:39:40;14.77;;;4.65;;
65651;SDS011;52350;51.546;7.002;2022-11-11T03:43:15;15.07;;;4.57;;
65651;SDS011;52350;51.546;7.002;2022-11-11T03:46:49;15.25;;;4.53;;
65651;SDS011;52350;51.546;7.002;2022-11-11T03:50:23;13.48;;;4.63;;
65651;SDS011;52350;51.546;7.002;2022-11-11T03:53:58;14.07;;;5.38;;
65651;SDS011;52350;51.546;7.002;2022-11-11T03:57:32;14.13;;;4.95;;
65651;SDS011;52350;51.546;7.002;2022-11-11T04:01:06;17.65;;;4.55;;
65651;SDS011;52350;51.546;7.002;2022-11-11T04:04:59;13.93;;;4.65;;
65651;SDS011;52350;51.546;7.002;2022-11-11T04:08:52;17.20;;;5.68;;
65651;SDS011;52350;51.546;7.002;2022-11-11T04:12:45;14.27;;;4.63;;
65651;SDS011;52350;51.546;7.002;2022-11-11T04:16:43;13.10;;;4.85;;
65651;SDS011;52350;51.546;7.002;2022-11-11T04:20:17;16.63;;;4.45;;
65651;SDS011;52350;51.546;7.002;2022-11-11T04:24:07;11.80;;;4.45;;
65651;SDS011;52350;51.546;7.002;2022-11-11T04:28:20;17.90;;;5.13;;
65651;SDS011;52350;51.546;7.002;2022-11-11T04:35:29;15.70;;;4.70;;
65651;SDS011;52350;51.546;7.002;2022-11-11T04:39:03;10.82;;;4.82;;
65651;SDS011;52350;51.546;7.002;2022-11-11T04:42:56;14.25;;;5.30;;
65651;SDS011;52350;51.546;7.002;2022-11-11T04:46:49;15.90;;;5.40;;
65651;SDS011;52350;51.546;7.002;2022-11-11T04:50:25;15.57;;;6.10;;
65651;SDS011;52350;51.546;7.002;2022-11-11T04:54:19;13.55;;;4.13;;
65651;SDS011;52350;51.546;7.002;2022-11-11T04:58:12;14.55;;;5.20;;
65651;SDS011;52350;51.546;7.002;2022-11-11T05:01:46;18.00;;;5.03;;
65651;SDS011;52350;51.546;7.002;2022-11-11T05:06:01;12.30;;;4.63;;
65651;SDS011;52350;51.546;7.002;2022-11-11T05:09:52;12.85;;;4.80;;
65651;SDS011;52350;51.546;7.002;2022-11-11T05:13:27;19.30;;;4.75;;
65651;SDS011;52350;51.546;7.002;2022-11-11T05:17:20;18.63;;;5.13;;
65651;SDS011;52350;51.546;7.002;2022-11-11T05:21:22;11.80;;;4.53;;
65651;SDS011;52350;51.546;7.002;2022-11-11T05:24:58;15.50;;;5.25;;
65651;SDS011;52350;51.546;7.002;2022-11-11T05:28:32;22.85;;;5.05;;
65651;SDS011;52350;51.546;7.002;2022-11-11T05:32:07;12.55;;;4.40;;
65651;SDS011;52350;51.546;7.002;2022-11-11T05:35:41;13.43;;;4.28;;
65651;SDS011;52350;51.546;7.002;2022-11-11T05:39:15;10.23;;;4.22;;
65651;SDS011;52350;51.546;7.002;2022-11-11T05:42:50;12.05;;;4.53;;
65651;SDS011;52350;51.546;7.002;2022-11-11T05:46:24;13.38;;;4.82;;
65651;SDS011;52350;51.546;7.002;2022-11-11T05:49:59;12.88;;;4.45;;
65651;SDS011;52350;51.546;7.002;2022-11-11T05:53:51;12.52;;;3.58;;
65651;SDS011;52350;51.546;7.002;2022-11-11T05:57:26;16.23;;;5.20;;
65651;SDS011;52350;51.546;7.002;2022-11-11T06:01:00;11.77;;;4.00;;
65651;SDS011;52350;51.546;7.002;2022-11-11T06:04:34;13.55;;;4.35;;
65651;SDS011;52350;51.546;7.002;2022-11-11T06:08:09;11.85;;;4.20;;
65651;SDS011;52350;51.546;7.002;2022-11-11T06:11:43;12.73;;;5.03;;
65651;SDS011;52350;51.546;7.002;2022-11-11T06:15:29;16.15;;;4.72;;
65651;SDS011;52350;51.546;7.002;2022-11-11T06:19:03;27.02;;;4.90;;
65651;SDS011;52350;51.546;7.002;2022-11-11T06:22:37;14.75;;;4.85;;
65651;SDS011;52350;51.546;7.002;2022-11-11T06:26:12;17.80;;;4.53;;
65651;SDS011;52350;51.546;7.002;2022-11-11T06:29:46;20.27;;;5.35;;
65651;SDS011;52350;51.546;7.002;2022-11-11T06:33:21;11.05;;;4.28;;
65651;SDS011;52350;51.546;7.002;2022-11-11T06:36:55;15.30;;;4.05;;
65651;SDS011;52350;51.546;7.002;2022-11-11T06:40:30;13.77;;;4.75;;
65651;SDS011;52350;51.546;7.002;2022-11-11T06:44:04;13.23;;;4.07;;
65651;SDS011;52350;51.546;7.002;2022-11-11T06:47:38;16.70;;;4.78;;
65651;SDS011;52350;51.546;7.002;2022-11-11T06:51:13;13.77;;;4.28;;
65651;SDS011;52350;51.546;7.002;2022-11-11T06:54:47;14.60;;;4.85;;
65651;SDS011;52350;51.546;7.002;2022-11-11T06:58:22;10.10;;;4.05;;
65651;SDS011;52350;51.546;7.002;2022-11-11T07:01:56;10.80;;;4.40;;
65651;SDS011;52350;51.546;7.002;2022-11-11T07:05:31;13.52;;;3.85;;
65651;SDS011;52350;51.546;7.002;2022-11-11T07:09:05;12.38;;;4.15;;
65651;SDS011;52350;51.546;7.002;2022-11-11T07:12:41;12.63;;;4.40;;
65651;SDS011;52350;51.546;7.002;2022-11-11T07:16:16;13.60;;;3.78;;
65651;SDS011;52350;51.546;7.002;2022-11-11T07:19:50;26.13;;;4.43;;
65651;SDS011;52350;51.546;7.002;2022-11-11T07:23:24;12.90;;;4.07;;
65651;SDS011;52350;51.546;7.002;2022-11-11T07:26:59;17.55;;;4.10;;
65651;SDS011;52350;51.546;7.002;2022-11-11T07:30:33;12.65;;;4.28;;
65651;SDS011;52350;51.546;7.002;2022-11-11T07:34:07;10.73;;;3.72;;
65651;SDS011;52350;51.546;7.002;2022-11-11T07:37:42;21.65;;;5.25;;
65651;SDS011;52350;51.546;7.002;2022-11-11T07:41:17;15.20;;;4.10;;
65651;SDS011;52350;51.546;7.002;2022-11-11T07:44:51;13.13;;;4.90;;
65651;SDS011;52350;51.546;7.002;2022-11-11T07:48:25;15.85;;;4.45;;
65651;SDS011;52350;51.546;7.002;2022-11-11T07:52:00;13.70;;;4.15;;
65651;SDS011;52350;51.546;7.002;2022-11-11T07:55:34;14.02;;;5.20;;
65651;SDS011;52350;51.546;7.002;2022-11-11T07:59:09;16.38;;;4.28;;
65651;SDS011;52350;51.546;7.002;2022-11-11T08:02:46;15.05;;;3.92;;
65651;SDS011;52350;51.546;7.002;2022-11-11T08:06:21;13.38;;;3.92;;
65651;SDS011;52350;51.546;7.002;2022-11-11T08:09:55;20.92;;;4.13;;
65651;SDS011;52350;51.546;7.002;2022-11-11T08:13:30;17.95;;;4.30;;
65651;SDS011;52350;51.546;7.002;2022-11-11T08:17:04;16.23;;;3.90;;
65651;SDS011;52350;51.546;7.002;2022-11-11T08:20:39;13.20;;;3.97;;
65651;SDS011;52350;51.546;7.002;2022-11-11T08:24:13;12.95;;;3.75;;
65651;SDS011;52350;51.546;7.002;2022-11-11T08:27:48;11.60;;;4.03;;
65651;SDS011;52350;51.546;7.002;2022-11-11T08:31:22;17.98;;;3.72;;
65651;SDS011;52350;51.546;7.002;2022-11-11T08:34:56;7.93;;;3.20;;
65651;SDS011;52350;51.546;7.002;2022-11-11T08:38:32;10.52;;;3.30;;
65651;SDS011;52350;51.546;7.002;2022-11-11T08:42:06;20.38;;;4.10;;
65651;SDS011;52350;51.546;7.002;2022-11-11T08:45:41;16.08;;;3.78;;
65651;SDS011;52350;51.546;7.002;2022-11-11T08:49:15;11.18;;;2.70;;
65651;SDS011;52350;51.546;7.002;2022-11-11T08:52:50;12.20;;;3.42;;
65651;SDS011;52350;51.546;7.002;2022-11-11T08:56:24;9.20;;;2.90;;
65651;SDS011;52350;51.546;7.002;2022-11-11T08:59:59;12.02;;;3.42;;
65651;SDS011;52350;51.546;7.002;2022-11-11T09:03:33;9.73;;;3.30;;
65651;SDS011;52350;51.546;7.002;2022-11-11T09:07:08;13.77;;;3.30;;
65651;SDS011;52350;51.546;7.002;2022-11-11T09:10:43;11.30;;;3.08;;
65651;SDS011;52350;51.546;7.002;2022-11-11T09:14:17;11.02;;;3.25;;
65651;SDS011;52350;51.546;7.002;2022-11-11T09:17:52;15.57;;;3.58;;
65651;SDS011;52350;51.546;7.002;2022-11-11T09:21:33;6.45;;;2.72;;
65651;SDS011;52350;51.546;7.002;2022-11-11T09:25:28;12.00;;;3.17;;
65651;SDS011;52350;51.546;7.002;2022-11-11T09:29:02;12.52;;;2.90;;
65651;SDS011;52350;51.546;7.002;2022-11-11T09:32:37;10.50;;;3.60;;
65651;SDS011;52350;51.546;7.002;2022-11-11T09:36:11;9.50;;;2.75;;
65651;SDS011;52350;51.546;7.002;2022-11-11T09:39:45;11.63;;;3.10;;
65651;SDS011;52350;51.546;7.002;2022-11-11T09:43:27;14.70;;;3.38;;
65651;SDS011;52350;51.546;7.002;2022-11-11T09:50:39;9.20;;;2.97;;
65651;SDS011;52350;51.546;7.002;2022-11-11T09:54:16;13.65;;;3.55;;
65651;SDS011;52350;51.546;7.002;2022-11-11T09:57:52;13.35;;;3.42;;
65651;SDS011;52350;51.546;7.002;2022-11-11T10:01:28;12.73;;;4.30;;
65651;SDS011;52350;51.546;7.002;2022-11-11T10:05:09;11.00;;;3.63;;
65651;SDS011;52350;51.546;7.002;2022-11-11T10:12:25;12.65;;;3.63;;
65651;SDS011;52350;51.546;7.002;2022-11-11T10:19:56;14.27;;;2.88;;
65651;SDS011;52350;51.546;7.002;2022-11-11T10:23:33;9.80;;;2.92;;
65651;SDS011;52350;51.546;7.002;2022-11-11T10:27:16;12.63;;;3.35;;
65651;SDS011;52350;51.546;7.002;2022-11-11T10:30:51;10.95;;;2.80;;
65651;SDS011;52350;51.546;7.002;2022-11-11T10:34:25;8.40;;;3.25;;
65651;SDS011;52350;51.546;7.002;2022-11-11T10:41:55;17.70;;;3.47;;
65651;SDS011;52350;51.546;7.002;2022-11-11T10:45:38;10.85;;;3.45;;
65651;SDS011;52350;51.546;7.002;2022-11-11T10:49:14;9.15;;;2.78;;
65651;SDS011;52350;51.546;7.002;2022-11-11T10:56:47;11.45;;;2.90;;
65651;SDS011;52350;51.546;7.002;2022-11-11T11:00:22;12.25;;;2.92;;
65651;SDS011;52350;51.546;7.002;2022-11-11T11:03:58;19.88;;;3.80;;
65651;SDS011;52350;51.546;7.002;2022-11-11T11:07:40;8.98;;;3.03;;
65651;SDS011;52350;51.546;7.002;2022-11-11T11:11:23;8.70;;;3.10;;
65651;SDS011;52350;51.546;7.002;2022-11-11T11:15:21;14.65;;;3.13;;
65651;SDS011;52350;51.546;7.002;2022-11-11T11:22:50;10.10;;;2.95;;
65651;SDS011;52350;51.546;7.002;2022-11-11T11:26:24;21.90;;;3.60;;
65651;SDS011;52350;51.546;7.002;2022-11-11T11:30:17;12.00;;;3.15;;
65651;SDS011;52350;51.546;7.002;2022-11-11T11:33:54;10.90;;;3.40;;
65651;SDS011;52350;51.546;7.002;2022-11-11T11:37:29;11.30;;;3.40;;
65651;SDS011;52350;51.546;7.002;2022-11-11T11:41:03;13.55;;;3.38;;
65651;SDS011;52350;51.546;7.002;2022-11-11T11:44:38;14.32;;;3.10;;
65651;SDS011;52350;51.546;7.002;2022-11-11T11:55:21;23.42;;;3.38;;
65651;SDS011;52350;51.546;7.002;2022-11-11T11:58:57;18.17;;;3.92;;
65651;SDS011;52350;51.546;7.002;2022-11-11T12:14:14;16.38;;;3.30;;
65651;SDS011;52350;51.546;7.002;2022-11-11T12:21:53;13.18;;;3.13;;
65651;SDS011;52350;51.546;7.002;2022-11-11T12:29:09;24.02;;;4.22;;
65651;SDS011;52350;51.546;7.002;2022-11-11T12:33:05;49.80;;;6.07;;
65651;SDS011;52350;51.546;7.002;2022-11-11T12:37:23;15.60;;;3.83;;
65651;SDS011;52350;51.546;7.002;2022-11-11T12:40:54;19.40;;;3.72;;
65651;SDS011;52350;51.546;7.002;2022-11-11T12:48:41;16.65;;;3.42;;
65651;SDS011;52350;51.546;7.002;2022-11-11T13:22:28;13.73;;;3.47;;
65651;SDS011;52350;51.546;7.002;2022-11-11T13:26:03;17.58;;;3.60;;
65651;SDS011;52350;51.546;7.002;2022-11-11T13:33:17;10.80;;;2.72;;
65651;SDS011;52350;51.546;7.002;2022-11-11T13:36:53;9.02;;;2.42;;
65651;SDS011;52350;51.546;7.002;2022-11-11T13:44:03;15.13;;;2.67;;
65651;SDS011;52350;51.546;7.002;2022-11-11T13:47:39;18.48;;;2.80;;
65651;SDS011;52350;51.546;7.002;2022-11-11T13:51:30;8.25;;;2.65;;
65651;SDS011;52350;51.546;7.002;2022-11-11T13:55:08;10.35;;;2.40;;
65651;SDS011;52350;51.546;7.002;2022-11-11T13:58:44;10.80;;;2.63;;
65651;SDS011;52350;51.546;7.002;2022-11-11T14:09:53;9.80;;;2.90;;
65651;SDS011;52350;51.546;7.002;2022-11-11T14:17:03;6.38;;;2.42;;
65651;SDS011;52350;51.546;7.002;2022-11-11T14:20:39;18.63;;;3.00;;
65651;SDS011;52350;51.546;7.002;2022-11-11T14:28:20;10.10;;;2.72;;
65651;SDS011;52350;51.546;7.002;2022-11-11T14:42:48;8.73;;;2.55;;
65651;SDS011;52350;51.546;7.002;2022-11-11T14:46:22;12.65;;;3.00;;
65651;SDS011;52350;51.546;7.002;2022-11-11T14:49:57;14.70;;;3.80;;
65651;SDS011;52350;51.546;7.002;2022-11-11T14:53:33;10.18;;;3.03;;
65651;SDS011;52350;51.546;7.002;2022-11-11T14:57:13;9.20;;;2.65;;
65651;SDS011;52350;51.546;7.002;2022-11-11T15:00:51;10.18;;;2.83;;
65651;SDS011;52350;51.546;7.002;2022-11-11T15:04:26;9.88;;;2.60;;
65651;SDS011;52350;51.546;7.002;2022-11-11T15:08:25;18.77;;;3.75;;
65651;SDS011;52350;51.546;7.002;2022-11-11T15:12:16;12.93;;;3.88;;
65651;SDS011;52350;51.546;7.002;2022-11-11T15:23:11;9.82;;;3.05;;
65651;SDS011;52350;51.546;7.002;2022-11-11T15:34:59;8.63;;;2.70;;
65651;SDS011;52350;51.546;7.002;2022-11-11T15:38:37;11.88;;;3.20;;
65651;SDS011;52350;51.546;7.002;2022-11-11T15:42:16;7.40;;;2.72;;
65651;SDS011;52350;51.546;7.002;2022-11-11T15:45:57;12.63;;;3.27;;
65651;SDS011;52350;51.546;7.002;2022-11-11T15:49:35;7.70;;;2.60;;
65651;SDS011;52350;51.546;7.002;2022-11-11T15:53:11;10.65;;;3.42;;
65651;SDS011;52350;51.546;7.002;2022-11-11T15:56:46;14.00;;;3.13;;
65651;SDS011;52350;51.546;7.002;2022-11-11T16:03:58;12.68;;;4.00;;
65651;SDS011;52350;51.546;7.002;2022-11-11T16:07:37;11.63;;;3.55;;
65651;SDS011;52350;51.546;7.002;2022-11-11T16:11:15;12.98;;;3.17;;
65651;SDS011;52350;51.546;7.002;2022-11-11T16:14:50;11.93;;;3.78;;
65651;SDS011;52350;51.546;7.002;2022-11-11T16:18:28;12.30;;;3.80;;
65651;SDS011;52350;51.546;7.002;2022-11-11T16:22:16;15.45;;;3.67;;
65651;SDS011;52350;51.546;7.002;2022-11-11T16:25:52;23.27;;;3.90;;
65651;SDS011;52350;51.546;7.002;2022-11-11T16:29:28;11.63;;;3.30;;
65651;SDS011;52350;51.546;7.002;2022-11-11T16:33:17;11.40;;;3.33;;
65651;SDS011;52350;51.546;7.002;2022-11-11T17:06:53;16.95;;;6.53;;
65651;SDS011;52350;51.546;7.002;2022-11-11T17:10:28;17.88;;;5.63;;
65651;SDS011;52350;51.546;7.002;2022-11-11T17:14:11;16.60;;;5.68;;
65651;SDS011;52350;51.546;7.002;2022-11-11T17:17:46;14.50;;;5.35;;
65651;SDS011;52350;51.546;7.002;2022-11-11T17:21:20;13.80;;;5.50;;
65651;SDS011;52350;51.546;7.002;2022-11-11T17:24:55;16.63;;;5.65;;
65651;SDS011;52350;51.546;7.002;2022-11-11T17:28:30;15.57;;;5.13;;
65651;SDS011;52350;51.546;7.002;2022-11-11T17:32:05;11.35;;;4.70;;
65651;SDS011;52350;51.546;7.002;2022-11-11T17:35:48;15.98;;;4.97;;
65651;SDS011;52350;51.546;7.002;2022-11-11T17:39:22;11.57;;;4.05;;
65651;SDS011;52350;51.546;7.002;2022-11-11T17:42:57;19.02;;;5.53;;
65651;SDS011;52350;51.546;7.002;2022-11-11T17:46:32;14.35;;;5.47;;
65651;SDS011;52350;51.546;7.002;2022-11-11T17:50:07;13.82;;;5.25;;
65651;SDS011;52350;51.546;7.002;2022-11-11T17:53:42;16.05;;;5.78;;
65651;SDS011;52350;51.546;7.002;2022-11-11T17:57:16;14.27;;;5.72;;
65651;SDS011;52350;51.546;7.002;2022-11-11T18:00:50;13.05;;;4.70;;
65651;SDS011;52350;51.546;7.002;2022-11-11T18:04:25;17.48;;;5.38;;
65651;SDS011;52350;51.546;7.002;2022-11-11T18:08:00;13.38;;;4.95;;
65651;SDS011;52350;51.546;7.002;2022-11-11T18:11:34;12.25;;;4.80;;
65651;SDS011;52350;51.546;7.002;2022-11-11T18:15:09;18.27;;;5.15;;
65651;SDS011;52350;51.546;7.002;2022-11-11T18:18:43;13.20;;;4.50;;
65651;SDS011;52350;51.546;7.002;2022-11-11T18:22:18;16.90;;;5.82;;
65651;SDS011;52350;51.546;7.002;2022-11-11T18:25:55;14.80;;;5.00;;
65651;SDS011;52350;51.546;7.002;2022-11-11T18:29:29;13.82;;;5.30;;
65651;SDS011;52350;51.546;7.002;2022-11-11T18:33:04;14.93;;;5.20;;
65651;SDS011;52350;51.546;7.002;2022-11-11T18:36:38;22.10;;;6.88;;
65651;SDS011;52350;51.546;7.002;2022-11-11T18:40:12;17.67;;;6.50;;
65651;SDS011;52350;51.546;7.002;2022-11-11T18:43:48;15.52;;;5.78;;
65651;SDS011;52350;51.546;7.002;2022-11-11T18:47:22;18.95;;;7.03;;
65651;SDS011;52350;51.546;7.002;2022-11-11T18:50:57;19.45;;;7.38;;
65651;SDS011;52350;51.546;7.002;2022-11-11T18:54:31;23.23;;;9.43;;
65651;SDS011;52350;51.546;7.002;2022-11-11T18:58:05;26.25;;;11.35;;
65651;SDS011;52350;51.546;7.002;2022-11-11T19:01:40;26.35;;;10.52;;
65651;SDS011;52350;51.546;7.002;2022-11-11T19:05:14;29.92;;;12.07;;
65651;SDS011;52350;51.546;7.002;2022-11-11T19:08:52;33.28;;;11.30;;
65651;SDS011;52350;51.546;7.002;2022-11-11T19:12:27;30.70;;;13.18;;
65651;SDS011;52350;51.546;7.002;2022-11-11T19:19:39;28.77;;;9.30;;
65651;SDS011;52350;51.546;7.002;2022-11-11T19:23:13;29.05;;;9.93;;
65651;SDS011;52350;51.546;7.002;2022-11-11T19:26:48;27.25;;;10.73;;
65651;SDS011;52350;51.546;7.002;2022-11-11T19:30:22;25.92;;;11.82;;
65651;SDS011;52350;51.546;7.002;2022-11-11T19:33:57;36.92;;;15.15;;
65651;SDS011;52350;51.546;7.002;2022-11-11T19:37:31;38.60;;;17.27;;
65651;SDS011;52350;51.546;7.002;2022-11-11T19:44:40;38.22;;;16.25;;
65651;SDS011;52350;51.546;7.002;2022-11-11T19:48:15;40.15;;;16.67;;
65651;SDS011;52350;51.546;7.002;2022-11-11T19:51:49;40.45;;;17.88;;
65651;SDS011;52350;51.546;7.002;2022-11-11T19:55:23;44.13;;;17.55;;
65651;SDS011;52350;51.546;7.002;2022-11-11T19:58:59;43.47;;;19.02;;
65651;SDS011;52350;51.546;7.002;2022-11-11T20:02:33;40.58;;;18.92;;
65651;SDS011;52350;51.546;7.002;2022-11-11T20:06:30;46.22;;;19.33;;
65651;SDS011;52350;51.546;7.002;2022-11-11T20:10:04;47.83;;;20.67;;
65651;SDS011;52350;51.546;7.002;2022-11-11T20:13:39;45.47;;;20.65;;
65651;SDS011;52350;51.546;7.002;2022-11-11T20:17:13;54.55;;;24.30;;
65651;SDS011;52350;51.546;7.002;2022-11-11T20:20:48;61.40;;;27.98;;
65651;SDS011;52350;51.546;7.002;2022-11-11T20:24:22;75.55;;;36.78;;
65651;SDS011;52350;51.546;7.002;2022-11-11T20:27:56;70.18;;;34.85;;
65651;SDS011;52350;51.546;7.002;2022-11-11T20:31:31;59.33;;;26.40;;
65651;SDS011;52350;51.546;7.002;2022-11-11T20:35:05;46.20;;;21.73;;
65651;SDS011;52350;51.546;7.002;2022-11-11T20:38:40;47.80;;;21.45;;
65651;SDS011;52350;51.546;7.002;2022-11-11T20:42:14;41.40;;;21.02;;
65651;SDS011;52350;51.546;7.002;2022-11-11T20:45:48;49.25;;;21.08;;
65651;SDS011;52350;51.546;7.002;2022-11-11T20:49:22;40.83;;;18.70;;
65651;SDS011;52350;51.546;7.002;2022-11-11T20:52:57;40.20;;;18.38;;
65651;SDS011;52350;51.546;7.002;2022-11-11T20:56:31;42.35;;;18.33;;
65651;SDS011;52350;51.546;7.002;2022-11-11T21:00:06;40.20;;;16.65;;
65651;SDS011;52350;51.546;7.002;2022-11-11T21:03:40;39.53;;;20.20;;
65651;SDS011;52350;51.546;7.002;2022-11-11T21:07:15;35.15;;;17.70;;
65651;SDS011;52350;51.546;7.002;2022-11-11T21:10:53;44.47;;;18.40;;
65651;SDS011;52350;51.546;7.002;2022-11-11T21:14:27;40.95;;;19.27;;
65651;SDS011;52350;51.546;7.002;2022-11-11T21:18:01;38.83;;;18.23;;
65651;SDS011;52350;51.546;7.002;2022-11-11T21:21:36;42.53;;;17.95;;
65651;SDS011;52350;51.546;7.002;2022-11-11T21:25:10;41.00;;;17.88;;
65651;SDS011;52350;51.546;7.002;2022-11-11T21:28:45;35.35;;;16.48;;
65651;SDS011;52350;51.546;7.002;2022-11-11T21:32:19;42.33;;;15.85;;
65651;SDS011;52350;51.546;7.002;2022-11-11T21:36:27;34.88;;;16.52;;
65651;SDS011;52350;51.546;7.002;2022-11-11T21:39:54;35.85;;;17.00;;
65651;SDS011;52350;51.546;7.002;2022-11-11T21:43:29;40.22;;;16.80;;
65651;SDS011;52350;51.546;7.002;2022-11-11T21:47:04;35.80;;;15.80;;
65651;SDS011;52350;51.546;7.002;2022-11-11T21:50:39;47.78;;;16.90;;
65651;SDS011;52350;51.546;7.002;2022-11-11T21:54:13;35.55;;;16.80;;
65651;SDS011;52350;51.546;7.002;2022-11-11T21:57:47;36.45;;;17.77;;
65651;SDS011;52350;51.546;7.002;2022-11-11T22:04:56;41.08;;;18.20;;
65651;SDS011;52350;51.546;7.002;2022-11-11T22:08:30;37.88;;;16.67;;
65651;SDS011;52350;51.546;7.002;2022-11-11T22:12:05;48.13;;;18.17;;
65651;SDS011;52350;51.546;7.002;2022-11-11T22:15:39;44.13;;;17.98;;
65651;SDS011;52350;51.546;7.002;2022-11-11T22:19:14;51.63;;;21.60;;
65651;SDS011;52350;51.546;7.002;2022-11-11T22:22:49;55.33;;;22.77;;
65651;SDS011;52350;51.546;7.002;2022-11-11T22:26:24;63.20;;;21.10;;
65651;SDS011;52350;51.546;7.002;2022-11-11T22:29:58;52.28;;;21.95;;
65651;SDS011;52350;51.546;7.002;2022-11-11T22:33:33;54.20;;;20.23;;
65651;SDS011;52350;51.546;7.002;2022-11-11T22:37:07;49.17;;;20.63;;
65651;SDS011;52350;51.546;7.002;2022-11-11T22:40:42;56.33;;;21.02;;
65651;SDS011;52350;51.546;7.002;2022-11-11T22:44:16;50.42;;;18.98;;
65651;SDS011;52350;51.546;7.002;2022-11-11T22:47:50;55.75;;;21.60;;
65651;SDS011;52350;51.546;7.002;2022-11-11T22:51:25;42.35;;;20.88;;
65651;SDS011;52350;51.546;7.002;2022-11-11T22:55:00;46.20;;;20.35;;
65651;SDS011;52350;51.546;7.002;2022-11-11T22:58:35;45.60;;;20.90;;
65651;SDS011;52350;51.546;7.002;2022-11-11T23:02:09;45.78;;;19.35;;
65651;SDS011;52350;51.546;7.002;2022-11-11T23:05:44;45.20;;;19.25;;
65651;SDS011;52350;51.546;7.002;2022-11-11T23:09:18;47.95;;;18.27;;
65651;SDS011;52350;51.546;7.002;2022-11-11T23:12:52;43.15;;;19.20;;
65651;SDS011;52350;51.546;7.002;2022-11-11T23:16:27;43.22;;;18.77;;
65651;SDS011;52350;51.546;7.002;2022-11-11T23:20:01;41.42;;;18.40;;
65651;SDS011;52350;51.546;7.002;2022-11-11T23:23:36;44.38;;;19.83;;
65651;SDS011;52350;51.546;7.002;2022-11-11T23:27:10;39.75;;;17.33;;
65651;SDS011;52350;51.546;7.002;2022-11-11T23:30:44;43.88;;;17.58;;
65651;SDS011;52350;51.546;7.002;2022-11-11T23:34:19;44.78;;;18.83;;
65651;SDS011;52350;51.546;7.002;2022-11-11T23:37:53;43.88;;;17.42;;
65651;SDS011;52350;51.546;7.002;2022-11-11T23:41:27;38.85;;;17.35;;
65651;SDS011;52350;51.546;7.002;2022-11-11T23:45:02;37.05;;;16.20;;
65651;SDS011;52350;51.546;7.002;2022-11-11T23:48:36;39.20;;;17.85;;
65651;SDS011;52350;51.546;7.002;2022-11-11T23:52:11;37.03;;;17.48;;
65651;SDS011;52350;51.546;7.002;2022-11-11T23:55:45;37.28;;;16.15;;
65651;SDS011;52350;51.546;7.002;2022-11-11T23:59:20;36.92;;;15.82;;
